createdAt,value
2023-02-01T00:02:11.222Z,99001.45
2023-02-01T00:04:58.000Z,98999.30
2023-02-01T00:08:03.582Z,99001.52
2023-02-01T00:10:49.913Z,98995.87
2023-02-01T00:13:39.073Z,98982.70
2023-02-01T00:16:29.126Z,98984.25
2023-02-01T00:19:16.341Z,98988.55
2023-02-01T00:22:02.759Z,98984.45
2023-02-01T00:24:49.194Z,98992.06
2023-02-01T00:27:35.761Z,98986.75
2023-02-01T00:30:22.832Z,98988.52
2023-02-01T00:33:37.825Z,98986.18
2023-02-01T00:36:24.207Z,98994.02
2023-02-01T00:39:11.464Z,98994.05
2023-02-01T00:41:57.951Z,98998.10
2023-02-01T00:44:44.308Z,98998.20
2023-02-01T00:47:31.516Z,99000.58
2023-02-01T00:50:18.100Z,98999.60
2023-02-01T00:53:04.575Z,99002.48
2023-02-01T00:55:51.189Z,99011.77
2023-02-01T00:58:38.273Z,99009.75
2023-02-01T01:02:38.822Z,99007.52
2023-02-01T01:06:34.931Z,98998.41
2023-02-01T01:10:32.677Z,98997.64
2023-02-01T01:13:18.999Z,98997.04
2023-02-01T01:16:14.896Z,99000.45
2023-02-01T01:19:02.128Z,99004.64
2023-02-01T01:21:48.643Z,99005.95
2023-02-01T01:25:47.355Z,99007.49
2023-02-01T01:29:56.016Z,99009.63
2023-02-01T01:33:22.748Z,99019.45
2023-02-01T01:37:21.848Z,99028.36
2023-02-01T01:41:35.842Z,99033.45
2023-02-01T01:44:58.542Z,99036.67
2023-02-01T01:47:54.923Z,99031.96
2023-02-01T01:51:11.328Z,99032.63
2023-02-01T01:54:02.283Z,99036.67
2023-02-01T01:57:19.829Z,99039.90
2023-02-01T02:00:12.390Z,99048.59
2023-02-01T02:03:03.790Z,99043.79
2023-02-01T02:05:50.399Z,99052.05
2023-02-01T02:08:36.438Z,99056.59
2023-02-01T02:11:21.660Z,99055.61
2023-02-01T02:14:10.142Z,99051.62
2023-02-01T02:17:11.327Z,99047.19
2023-02-01T02:20:27.107Z,99041.85
2023-02-01T02:23:42.244Z,99054.50
2023-02-01T02:26:36.367Z,99056.39
2023-02-01T02:30:20.021Z,99053.49
2023-02-01T02:33:32.971Z,99054.58
2023-02-01T02:36:20.679Z,99062.80
2023-02-01T02:39:24.011Z,99068.57
2023-02-01T02:42:33.226Z,99069.44
2023-02-01T02:45:43.551Z,99069.37
2023-02-01T02:48:42.676Z,99074.58
2023-02-01T02:52:22.950Z,99081.11
2023-02-01T02:55:09.161Z,99087.51
2023-02-01T02:58:15.202Z,99094.59
2023-02-01T03:01:20.959Z,99086.80
2023-02-01T03:04:09.633Z,99092.21
2023-02-01T03:06:55.155Z,99091.94
2023-02-01T03:09:48.059Z,99092.48
2023-02-01T03:12:56.004Z,99092.13
2023-02-01T03:16:07.413Z,99092.21
2023-02-01T03:19:04.064Z,99094.15
2023-02-01T03:21:56.265Z,99090.27
2023-02-01T03:24:48.472Z,99089.67
2023-02-01T03:27:38.711Z,99097.20
2023-02-01T03:30:32.132Z,99086.17
2023-02-01T03:33:21.840Z,99085.71
2023-02-01T03:36:23.048Z,99095.29
2023-02-01T03:39:25.188Z,99096.39
2023-02-01T03:42:20.829Z,99095.57
2023-02-01T03:45:10.546Z,99097.02
2023-02-01T03:48:00.506Z,99092.25
2023-02-01T03:50:50.541Z,99090.11
2023-02-01T03:53:37.793Z,99092.15
2023-02-01T03:56:25.803Z,99095.16
2023-02-01T03:59:12.649Z,99105.91
2023-02-01T04:01:57.543Z,99099.99
2023-02-01T04:04:42.796Z,99099.70
2023-02-01T04:07:27.815Z,99108.48
2023-02-01T04:10:13.606Z,99106.20
2023-02-01T04:13:28.321Z,99109.09
2023-02-01T04:16:13.526Z,99100.70
2023-02-01T04:18:59.097Z,99092.66
2023-02-01T04:21:47.442Z,99101.61
2023-02-01T04:24:32.592Z,99103.40
2023-02-01T04:27:19.383Z,99108.14
2023-02-01T04:30:09.919Z,99107.70
2023-02-01T04:32:55.122Z,99100.91
2023-02-01T04:35:40.701Z,99103.55
2023-02-01T04:38:27.231Z,99106.64
2023-02-01T04:41:12.137Z,99111.75
2023-02-01T04:43:57.314Z,99111.38
2023-02-01T04:46:43.297Z,99111.95
2023-02-01T04:49:28.311Z,99115.02
2023-02-01T04:52:13.603Z,99114.55
2023-02-01T04:55:00.470Z,99123.92
2023-02-01T04:57:45.661Z,99123.94
2023-02-01T05:00:33.374Z,99128.92
2023-02-01T05:03:18.800Z,99122.79
2023-02-01T05:06:05.277Z,99128.63
2023-02-01T05:08:50.363Z,99131.27
2023-02-01T05:11:54.109Z,99135.40
2023-02-01T05:14:39.057Z,99139.19
2023-02-01T05:17:24.291Z,99138.33
2023-02-01T05:20:09.909Z,99133.78
2023-02-01T05:22:55.260Z,99133.61
2023-02-01T05:25:40.352Z,99133.11
2023-02-01T05:28:25.558Z,99138.38
2023-02-01T05:31:11.871Z,99133.14
2023-02-01T05:33:56.912Z,99134.94
2023-02-01T05:36:42.367Z,99133.55
2023-02-01T05:39:30.262Z,99130.96
2023-02-01T05:42:16.511Z,99129.98
2023-02-01T05:45:03.011Z,99121.49
2023-02-01T05:47:48.406Z,99129.44
2023-02-01T05:51:53.321Z,99121.69
2023-02-01T05:55:10.537Z,99127.55
2023-02-01T05:59:10.453Z,99130.39
2023-02-01T06:01:57.200Z,99132.19
2023-02-01T06:04:44.397Z,99124.64
2023-02-01T06:07:31.131Z,99126.48
2023-02-01T06:10:19.028Z,99125.73
2023-02-01T06:13:06.644Z,99131.52
2023-02-01T06:15:53.441Z,99127.15
2023-02-01T06:18:40.362Z,99128.04
2023-02-01T06:21:26.917Z,99124.94
2023-02-01T06:24:13.944Z,99120.50
2023-02-01T06:27:00.655Z,99121.91
2023-02-01T06:29:47.264Z,99120.90
2023-02-01T06:32:34.299Z,99115.55
2023-02-01T06:35:21.087Z,99115.45
2023-02-01T06:38:07.513Z,99118.61
2023-02-01T06:40:55.609Z,99109.52
2023-02-01T06:43:41.909Z,99113.06
2023-02-01T06:46:28.257Z,99111.23
2023-02-01T06:49:14.677Z,99111.56
2023-02-01T06:52:01.299Z,99110.54
2023-02-01T06:55:05.011Z,99111.64
2023-02-01T06:59:18.788Z,99119.77
2023-02-01T07:02:39.169Z,99115.31
2023-02-01T07:06:38.909Z,99120.95
2023-02-01T07:10:35.636Z,99122.81
2023-02-01T07:13:23.180Z,99124.90
2023-02-01T07:16:12.894Z,99123.06
2023-02-01T07:19:00.676Z,99131.41
2023-02-01T07:21:47.169Z,99131.30
2023-02-01T07:24:34.955Z,99120.70
2023-02-01T07:27:52.013Z,99120.59
2023-02-01T07:31:16.701Z,99125.73
2023-02-01T07:35:15.161Z,99122.42
2023-02-01T07:38:01.422Z,99123.91
2023-02-01T07:40:47.751Z,99126.80
2023-02-01T07:43:37.034Z,99125.77
2023-02-01T07:46:23.727Z,99131.41
2023-02-01T07:49:11.314Z,99133.52
2023-02-01T07:51:57.658Z,99134.59
2023-02-01T07:54:44.549Z,99133.73
2023-02-01T07:57:31.012Z,99126.95
2023-02-01T08:00:36.703Z,99127.79
2023-02-01T08:03:35.720Z,99125.73
2023-02-01T08:07:50.523Z,99125.30
2023-02-01T08:11:03.966Z,99125.93
2023-02-01T08:13:49.525Z,99123.00
2023-02-01T08:16:36.785Z,99128.52
2023-02-01T08:21:37.495Z,99125.30
2023-02-01T08:25:36.167Z,99121.82
2023-02-01T08:29:36.613Z,99125.15
2023-02-01T08:32:23.147Z,99126.27
2023-02-01T08:35:10.130Z,99127.44
2023-02-01T08:37:56.911Z,99134.83
2023-02-01T08:40:48.854Z,99128.98
2023-02-01T08:43:35.256Z,99122.67
2023-02-01T08:46:33.132Z,99123.67
2023-02-01T08:50:28.477Z,99120.96
2023-02-01T08:54:23.339Z,99126.71
2023-02-01T08:58:18.969Z,99134.48
2023-02-01T09:02:18.247Z,99137.61
2023-02-01T09:06:17.545Z,99134.02
2023-02-01T09:10:35.691Z,99136.30
2023-02-01T09:13:50.520Z,99135.56
2023-02-01T09:17:50.024Z,99127.98
2023-02-01T09:21:45.052Z,99122.23
2023-02-01T09:25:42.195Z,99123.89
2023-02-01T09:28:28.834Z,99131.09
2023-02-01T09:31:15.852Z,99126.89
2023-02-01T09:34:04.065Z,99133.55
2023-02-01T09:36:50.545Z,99127.89
2023-02-01T09:39:37.065Z,99125.14
2023-02-01T09:43:17.787Z,99120.40
2023-02-01T09:46:27.146Z,99112.79
2023-02-01T09:50:38.404Z,99119.08
2023-02-01T09:54:13.130Z,99115.31
2023-02-01T09:57:08.205Z,99116.96
2023-02-01T10:00:07.369Z,99118.91
2023-02-01T10:02:56.198Z,99122.59
2023-02-01T10:06:07.519Z,99122.04
2023-02-01T10:09:21.945Z,99118.77
2023-02-01T10:12:17.195Z,99124.52
2023-02-01T10:15:18.606Z,99117.32
2023-02-01T10:18:18.391Z,99121.75
2023-02-01T10:21:43.163Z,99123.42
2023-02-01T10:24:41.076Z,99121.03
2023-02-01T10:27:44.775Z,99120.31
2023-02-01T10:30:43.105Z,99114.23
2023-02-01T10:33:43.435Z,99120.79
2023-02-01T10:36:39.348Z,99120.33
2023-02-01T10:39:25.951Z,99126.13
2023-02-01T10:42:13.437Z,99126.64
2023-02-01T10:45:02.979Z,99124.84
2023-02-01T10:47:51.966Z,99125.33
2023-02-01T10:50:41.515Z,99127.30
2023-02-01T10:53:32.857Z,99127.50
2023-02-01T10:56:25.578Z,99121.05
2023-02-01T10:59:21.590Z,99116.63
2023-02-01T11:02:21.787Z,99122.81
2023-02-01T11:05:17.224Z,99123.06
2023-02-01T11:08:03.869Z,99123.21
2023-02-01T11:11:02.402Z,99117.60
2023-02-01T11:14:11.968Z,99119.22
2023-02-01T11:17:01.331Z,99120.48
2023-02-01T11:19:57.137Z,99112.65
2023-02-01T11:22:49.433Z,99117.35
2023-02-01T11:25:37.411Z,99108.20
2023-02-01T11:28:32.230Z,99108.50
2023-02-01T11:31:19.924Z,99102.48
2023-02-01T11:34:31.599Z,99100.21
2023-02-01T11:37:22.182Z,99100.09
2023-02-01T11:40:30.061Z,99100.27
2023-02-01T11:43:29.377Z,99096.48
2023-02-01T11:46:25.875Z,99093.58
2023-02-01T11:49:28.449Z,99094.23
2023-02-01T11:52:39.580Z,99094.20
2023-02-01T11:55:58.509Z,99094.77
2023-02-01T11:59:11.062Z,99092.09
2023-02-01T12:02:16.844Z,99087.15
2023-02-01T12:05:17.660Z,99082.27
2023-02-01T12:08:21.474Z,99083.98
2023-02-01T12:11:58.945Z,99081.94
2023-02-01T12:14:48.183Z,99082.37
2023-02-01T12:17:49.434Z,99074.55
2023-02-01T12:20:58.237Z,99072.21
2023-02-01T12:24:09.736Z,99073.88
2023-02-01T12:27:14.886Z,99068.88
2023-02-01T12:30:12.723Z,99067.77
2023-02-01T12:33:26.131Z,99074.11
2023-02-01T12:37:14.568Z,99077.11
2023-02-01T12:40:36.318Z,99076.22
2023-02-01T12:43:40.718Z,99076.40
2023-02-01T12:46:34.192Z,99074.70
2023-02-01T12:49:28.533Z,99078.58
2023-02-01T12:52:21.250Z,99073.56
2023-02-01T12:55:29.508Z,99079.23
2023-02-01T12:58:55.780Z,99082.93
2023-02-01T13:01:51.978Z,99076.36
2023-02-01T13:04:52.255Z,99081.88
2023-02-01T13:08:01.283Z,99075.55
2023-02-01T13:10:56.671Z,99074.31
2023-02-01T13:14:14.069Z,99073.41
2023-02-01T13:17:05.130Z,99073.35
2023-02-01T13:20:06.618Z,99069.46
2023-02-01T13:23:04.985Z,99075.63
2023-02-01T13:25:53.381Z,99074.39
2023-02-01T13:29:07.010Z,99082.87
2023-02-01T13:32:57.071Z,99087.27
2023-02-01T13:36:16.761Z,99085.64
2023-02-01T13:39:31.528Z,99087.88
2023-02-01T13:42:29.941Z,99089.03
2023-02-01T13:45:23.586Z,99091.64
2023-02-01T13:48:21.973Z,99093.63
2023-02-01T13:51:08.967Z,99095.63
2023-02-01T13:53:55.603Z,99094.70
2023-02-01T13:56:44.789Z,99091.80
2023-02-01T13:59:49.136Z,99093.26
2023-02-01T14:02:41.870Z,99096.65
2023-02-01T14:05:28.512Z,99088.83
2023-02-01T14:08:24.232Z,99092.00
2023-02-01T14:11:36.582Z,99095.44
2023-02-01T14:14:24.702Z,99098.52
2023-02-01T14:17:11.382Z,99091.96
2023-02-01T14:20:36.222Z,99088.09
2023-02-01T14:23:25.417Z,99083.67
2023-02-01T14:26:16.198Z,99087.85
2023-02-01T14:29:21.362Z,99087.52
2023-02-01T14:32:17.734Z,99093.39
2023-02-01T14:35:25.763Z,99092.21
2023-02-01T14:38:13.359Z,99090.80
2023-02-01T14:41:33.789Z,99089.14
2023-02-01T14:44:27.744Z,99087.19
2023-02-01T14:47:23.975Z,99085.65
2023-02-01T14:50:11.225Z,99083.91
2023-02-01T14:53:13.705Z,99089.70
2023-02-01T14:56:12.847Z,99091.39
2023-02-01T14:59:07.552Z,99095.82
2023-02-01T15:01:58.532Z,99090.09
2023-02-01T15:04:45.977Z,99092.63
2023-02-01T15:07:34.175Z,99086.66
2023-02-01T15:10:24.598Z,99098.78
2023-02-01T15:13:24.724Z,99097.95
2023-02-01T15:16:17.094Z,99098.73
2023-02-01T15:19:12.674Z,99098.42
2023-02-01T15:22:00.020Z,99099.02
2023-02-01T15:24:57.380Z,99099.31
2023-02-01T15:27:44.106Z,99097.43
2023-02-01T15:30:35.728Z,99098.89
2023-02-01T15:33:23.052Z,99098.95
2023-02-01T15:36:18.768Z,99104.34
2023-02-01T15:39:48.927Z,99100.49
2023-02-01T15:42:50.759Z,99102.11
2023-02-01T15:45:38.158Z,99105.11
2023-02-01T15:48:27.116Z,99111.30
2023-02-01T15:51:18.625Z,99102.89
2023-02-01T15:54:09.704Z,99108.13
2023-02-01T15:57:00.038Z,99101.11
2023-02-01T15:59:46.832Z,99103.93
2023-02-01T16:02:34.034Z,99105.10
2023-02-01T16:05:35.002Z,99109.02
2023-02-01T16:08:25.153Z,99101.73
2023-02-01T16:11:28.729Z,99099.13
2023-02-01T16:14:16.612Z,99097.98
2023-02-01T16:17:03.561Z,99104.27
2023-02-01T16:19:50.984Z,99103.31
2023-02-01T16:22:38.941Z,99101.70
2023-02-01T16:25:26.313Z,99101.03
2023-02-01T16:28:13.743Z,99109.23
2023-02-01T16:31:54.296Z,99105.01
2023-02-01T16:35:37.964Z,99097.59
2023-02-01T16:39:35.486Z,99095.84
2023-02-01T16:42:52.109Z,99097.95
2023-02-01T16:45:41.801Z,99095.92
2023-02-01T16:48:38.180Z,99096.42
2023-02-01T16:51:28.202Z,99098.35
2023-02-01T16:54:15.884Z,99094.52
2023-02-01T16:57:02.955Z,99092.27
2023-02-01T16:59:52.099Z,99094.65
2023-02-01T17:02:41.203Z,99088.66
2023-02-01T17:05:30.169Z,99092.00
2023-02-01T17:08:33.793Z,99097.20
2023-02-01T17:11:23.039Z,99096.70
2023-02-01T17:14:20.271Z,99101.15
2023-02-01T17:17:12.047Z,99104.56
2023-02-01T17:20:33.276Z,99108.45
2023-02-01T17:23:21.350Z,99106.42
2023-02-01T17:26:11.775Z,99103.41
2023-02-01T17:28:58.922Z,99101.82
2023-02-01T17:31:51.713Z,99096.49
2023-02-01T17:34:39.501Z,99103.84
2023-02-01T17:37:33.416Z,99102.09
2023-02-01T17:40:20.566Z,99099.98
2023-02-01T17:43:14.717Z,99105.95
2023-02-01T17:46:14.895Z,99105.21
2023-02-01T17:50:31.356Z,99107.52
2023-02-01T17:54:26.925Z,99102.64
2023-02-01T17:57:14.955Z,99113.33
2023-02-01T18:00:04.377Z,99109.33
2023-02-01T18:02:52.222Z,99112.10
2023-02-01T18:05:45.372Z,99111.41
2023-02-01T18:08:44.730Z,99117.75
2023-02-01T18:11:34.147Z,99117.16
2023-02-01T18:14:21.979Z,99123.88
2023-02-01T18:17:11.238Z,99120.70
2023-02-01T18:19:59.486Z,99119.65
2023-02-01T18:22:51.552Z,99114.59
2023-02-01T18:26:18.607Z,99112.60
2023-02-01T18:29:06.992Z,99113.59
2023-02-01T18:31:55.707Z,99115.98
2023-02-01T18:34:44.496Z,99114.76
2023-02-01T18:37:32.195Z,99111.23
2023-02-01T18:40:22.897Z,99119.86
2023-02-01T18:43:12.539Z,99116.09
2023-02-01T18:46:00.003Z,99113.98
2023-02-01T18:48:48.334Z,99108.79
2023-02-01T18:51:36.474Z,99111.54
2023-02-01T18:54:25.456Z,99105.02
2023-02-01T18:57:16.498Z,99108.31
2023-02-01T19:00:08.692Z,99100.32
2023-02-01T19:02:57.115Z,99100.45
2023-02-01T19:05:48.593Z,99101.67
2023-02-01T19:08:37.429Z,99096.25
2023-02-01T19:11:26.328Z,99090.42
2023-02-01T19:14:54.878Z,99087.64
2023-02-01T19:19:10.506Z,99089.95
2023-02-01T19:21:57.377Z,99096.45
2023-02-01T19:24:43.982Z,99096.59
2023-02-01T19:27:29.992Z,99100.52
2023-02-01T19:30:25.512Z,99098.29
2023-02-01T19:33:22.832Z,99098.67
2023-02-01T19:37:46.784Z,99099.82
2023-02-01T19:41:44.990Z,99102.05
2023-02-01T19:56:36.053Z,99090.29
2023-02-01T19:59:32.665Z,99099.96
2023-02-01T20:04:03.862Z,99105.39
2023-02-01T20:08:02.829Z,99105.85
2023-02-01T20:11:59.531Z,99106.29
2023-02-01T20:15:59.738Z,99105.45
2023-02-01T20:20:05.679Z,99100.20
2023-02-01T20:25:20.423Z,99094.67
2023-02-01T20:39:27.502Z,99086.25
2023-02-01T20:53:42.180Z,99079.75
2023-02-01T21:07:05.498Z,99092.56
2023-02-01T21:10:28.389Z,99092.33
2023-02-01T21:14:26.395Z,99094.45
2023-02-01T21:18:21.583Z,99089.52
2023-02-01T21:22:49.878Z,99087.48
2023-02-01T21:37:13.457Z,99087.34
2023-02-01T21:40:13.461Z,99088.70
2023-02-01T21:44:14.536Z,99092.84
2023-02-01T21:48:11.465Z,99086.23
2023-02-01T21:52:07.135Z,99080.80
2023-02-01T22:01:36.095Z,99079.02
2023-02-01T22:05:34.534Z,99077.52
2023-02-01T22:10:22.664Z,99076.23
2023-02-01T22:14:38.134Z,99076.33
2023-02-01T22:18:31.135Z,99075.21
2023-02-01T22:22:25.545Z,99080.55
2023-02-01T22:25:11.893Z,99079.40
2023-02-01T22:28:31.815Z,99078.77
2023-02-01T22:31:07.667Z,99074.08
2023-02-01T22:33:54.145Z,99074.46
2023-02-01T22:36:40.850Z,99068.60
2023-02-01T22:50:05.831Z,99066.81
2023-02-01T22:53:10.637Z,99059.66
2023-02-01T23:34:40.852Z,99048.02
2023-02-01T23:37:42.202Z,99049.58
2023-02-01T23:41:37.424Z,99045.13
2023-02-01T23:45:36.938Z,99046.34
2023-02-01T23:49:15.643Z,99043.01
2023-02-01T23:53:13.386Z,99037.02
2023-02-01T23:57:08.394Z,99038.27
